Hlavní strana
METAR-TAF:

METAR-TAF

Letiště :

Bahrajn, Bahrajn

zeměpisná šířka: 26-16N, zeměpisná délka: 050-39E, výška: 2 m

Aktuální stav počasí

Zpráva byla vytvořena před 25 minutami, v 05:30 UTC
Západoseverozápadní vítr 7 kt, proměnlivý mezi západojihozápadním a západoseverozápadním
Teplota 34°C
Vlhkost vzduchu 71%
Tlak 1009 hPa
Viditelnost: 7000 m
Jasno

METAR: OBBI 240530Z 29007KT 240V300 7000 SKC 34/28 Q1009 NOSIG

Čas: 08:55 (05:55 UTC)

Předpověď počasí

Zpráva byla vytvořena před 55 minutami, v 05:00 UTC
Předpověď platná od 24 v 06 UTC do 25 v 12 UTC
vítr z různých směrů 5 kt
Viditelnost: 5000 m
Změna
od 24 v 07 UTC do 24 v 09 UTC
Severní vítr 10 kt
Viditelnost: 7000 m
Změna
od 24 v 15 UTC do 24 v 17 UTC
vítr z různých směrů 5 kt
Viditelnost: 5000 m

TAF: OBBI 240500Z 2406/2512 VRB05KT 5000 NSC BECMG 2407/2409 36010KT 7000 BECMG 2415/2417 VRB05KT 5000

Stav a předpovědi počasí z více než 4 000 letišť (zprávy METAR a TAF).

Červené a žluté tečky na mapě představují dostupné meteorologické stanice.

Když kurzor umístíte na tečku, zobrazí se název stanice.

Pak kliknutím zobrazíte stav a předpověď počasí.

Chcete-li změnit mapu, kliknutím na zelené tlačítko se znaménkem +mapu přiblížíte, kliknutím na zelené tlačítko se znaménkem – mapu oddálíte a kliknutím na zelené šipky přejdete na sousední mapy.


METAR-TAF: